Time;durP1;ratioP1;P1;durP2;ratioP2;P2;SDS_P1;SDS_P2;PMS_P1;PMS_P2;Temp;Humidity;BMP_temperature;BMP_pressure;BME280_temperature;BME280_humidity;BME280_pressure;Samples;Min_cycle;Max_cycle;Signal;HPM_P1;HPM_P2
2022/08/30 00:02:09;;;;;;;7.10;3.50;;;;;;;;;;5037128;28;20212;-45
2022/08/30 00:04:36;;;;;;;10.02;3.60;;;;;;;;;;5038853;28;20216;-49
2022/08/30 00:07:04;;;;;;;14.70;4.05;;;;;;;;;;5038804;28;20201;-46
2022/08/30 00:09:31;;;;;;;8.50;3.75;;;;;;;;;;5038827;28;20661;-49
2022/08/30 00:12:00;;;;;;;7.22;3.78;;;;;;;;;;5038792;28;20204;-45
2022/08/30 00:14:27;;;;;;;11.55;4.00;;;;;;;;;;5038551;28;20270;-45
2022/08/30 00:16:54;;;;;;;8.70;3.65;;;;;;;;;;5038280;28;20283;-46
2022/08/30 00:19:21;;;;;;;6.35;3.85;;;;;;;;;;5038252;28;20524;-45
2022/08/30 00:21:48;;;;;;;6.85;3.90;;;;;;;;;;5038296;28;20208;-48
2022/08/30 00:24:14;;;;;;;8.68;3.55;;;;;;;;;;5038454;28;20204;-47
2022/08/30 00:26:42;;;;;;;10.38;3.88;;;;;;;;;;5038157;28;20212;-45
2022/08/30 00:29:08;;;;;;;10.02;4.45;;;;;;;;;;5038381;28;20204;-46
2022/08/30 00:31:35;;;;;;;11.15;4.30;;;;;;;;;;5038227;28;20213;-47
2022/08/30 00:34:03;;;;;;;7.43;3.90;;;;;;;;;;5038201;28;20278;-46
2022/08/30 00:36:29;;;;;;;10.43;4.30;;;;;;;;;;5038110;28;20239;-47
2022/08/30 00:38:57;;;;;;;7.63;4.15;;;;;;;;;;5038000;28;20236;-49
2022/08/30 00:41:24;;;;;;;6.00;3.78;;;;;;;;;;5038003;28;20205;-46
2022/08/30 00:43:51;;;;;;;8.38;3.88;;;;;;;;;;5037966;28;20219;-46
2022/08/30 00:46:18;;;;;;;7.78;4.13;;;;;;;;;;5038742;28;20216;-49
2022/08/30 00:48:47;;;;;;;6.60;3.72;;;;;;;;;;5037998;28;20267;-48
2022/08/30 00:51:16;;;;;;;7.35;3.67;;;;;;;;;;5038276;28;20197;-48
2022/08/30 00:53:46;;;;;;;11.43;4.30;;;;;;;;;;5037992;28;20200;-48
2022/08/30 00:56:14;;;;;;;6.35;3.80;;;;;;;;;;5037349;28;20225;-49
2022/08/30 00:58:44;;;;;;;10.32;3.95;;;;;;;;;;5036656;28;20208;-47
2022/08/30 01:01:11;;;;;;;11.88;3.90;;;;;;;;;;5036595;28;20696;-46
2022/08/30 01:03:39;;;;;;;7.57;3.72;;;;;;;;;;5037634;28;20204;-49
2022/08/30 01:06:06;;;;;;;6.97;3.97;;;;;;;;;;5036784;28;20540;-48
2022/08/30 01:08:34;;;;;;;7.80;4.13;;;;;;;;;;5037749;28;20207;-49
2022/08/30 01:11:02;;;;;;;8.57;4.32;;;;;;;;;;5037237;28;20267;-47
2022/08/30 01:13:30;;;;;;;9.57;4.60;;;;;;;;;;5036114;28;20204;-48
2022/08/30 01:15:58;;;;;;;7.25;3.78;;;;;;;;;;5037395;28;20220;-46
2022/08/30 01:18:26;;;;;;;6.93;4.25;;;;;;;;;;5037836;28;20258;-47
2022/08/30 01:21:21;;;;;;;8.02;4.40;;;;;;;;;;5036209;28;20205;-47
2022/08/30 01:23:50;;;;;;;8.13;4.20;;;;;;;;;;5036477;28;20212;-46
2022/08/30 01:26:18;;;;;;;9.63;4.18;;;;;;;;;;5036186;28;20235;-48
2022/08/30 01:28:51;;;;;;;15.18;4.40;;;;;;;;;;5037370;28;20254;-47
2022/08/30 01:31:18;;;;;;;6.63;3.92;;;;;;;;;;5036614;28;20205;-50
2022/08/30 01:33:45;;;;;;;8.98;4.43;;;;;;;;;;5037189;28;20196;-48
2022/08/30 01:36:13;;;;;;;7.40;4.32;;;;;;;;;;5037447;28;20230;-48
2022/08/30 01:38:50;;;;;;;6.82;4.28;;;;;;;;;;5037634;28;20229;-49
2022/08/30 01:41:17;;;;;;;9.43;4.40;;;;;;;;;;5037189;28;20274;-47
2022/08/30 01:43:44;;;;;;;8.77;4.65;;;;;;;;;;5036789;28;20204;-50
2022/08/30 01:46:13;;;;;;;7.22;4.03;;;;;;;;;;5036999;28;20205;-46
2022/08/30 01:48:41;;;;;;;11.32;4.45;;;;;;;;;;5036789;28;20201;-45
2022/08/30 01:51:16;;;;;;;12.57;4.65;;;;;;;;;;5037149;28;20540;-49
2022/08/30 01:53:44;;;;;;;7.90;4.75;;;;;;;;;;5036752;28;20201;-45
2022/08/30 01:56:11;;;;;;;14.23;4.63;;;;;;;;;;5036794;28;20278;-47
2022/08/30 01:58:39;;;;;;;8.40;4.82;;;;;;;;;;5036588;28;20212;-46
2022/08/30 02:01:11;;;;;;;7.38;4.75;;;;;;;;;;5036500;28;20666;-45
2022/08/30 02:03:40;;;;;;;9.35;5.57;;;;;;;;;;5037220;28;20196;-45
2022/08/30 02:06:11;;;;;;;11.43;4.47;;;;;;;;;;5036527;28;20212;-45
2022/08/30 02:08:41;;;;;;;12.07;5.30;;;;;;;;;;5037119;28;20193;-46
2022/08/30 02:11:09;;;;;;;9.73;4.78;;;;;;;;;;5036818;28;20220;-50
2022/08/30 02:13:37;;;;;;;7.28;4.97;;;;;;;;;;5036367;28;20575;-46
2022/08/30 02:16:10;;;;;;;8.30;5.40;;;;;;;;;;5036303;28;20233;-46
2022/08/30 02:18:38;;;;;;;6.78;5.15;;;;;;;;;;5036881;28;20208;-45
2022/08/30 02:21:06;;;;;;;9.10;5.30;;;;;;;;;;5035324;28;20205;-46
2022/08/30 02:23:33;;;;;;;11.95;5.32;;;;;;;;;;5035682;28;20300;-45
2022/08/30 02:26:01;;;;;;;9.00;5.90;;;;;;;;;;5036070;28;20266;-46
2022/08/30 02:28:28;;;;;;;11.63;5.30;;;;;;;;;;5036723;28;20221;-45
2022/08/30 02:30:56;;;;;;;7.82;5.32;;;;;;;;;;5035686;28;20243;-47
2022/08/30 02:33:24;;;;;;;8.55;5.68;;;;;;;;;;5036119;28;20529;-45
2022/08/30 02:35:51;;;;;;;9.02;6.25;;;;;;;;;;5035975;28;20228;-46
2022/08/30 02:38:18;;;;;;;8.60;5.88;;;;;;;;;;5035930;28;20233;-44
2022/08/30 02:40:46;;;;;;;8.80;4.88;;;;;;;;;;5035781;28;20212;-45
2022/08/30 02:43:13;;;;;;;10.52;5.18;;;;;;;;;;5035577;28;20218;-49
2022/08/30 02:45:40;;;;;;;12.60;5.78;;;;;;;;;;5035922;28;20200;-46
2022/08/30 02:48:08;;;;;;;11.98;5.82;;;;;;;;;;5035754;28;20204;-50
2022/08/30 02:50:45;;;;;;;9.15;5.38;;;;;;;;;;5035853;28;20215;-46
2022/08/30 02:53:13;;;;;;;9.32;5.53;;;;;;;;;;5035719;28;20528;-47
2022/08/30 02:55:42;;;;;;;8.52;4.68;;;;;;;;;;5035274;28;20548;-47
2022/08/30 02:58:09;;;;;;;8.35;5.03;;;;;;;;;;5035368;28;20197;-50
2022/08/30 03:00:38;;;;;;;6.43;4.55;;;;;;;;;;5035596;28;20212;-49
2022/08/30 03:03:06;;;;;;;8.20;5.18;;;;;;;;;;5035406;28;20553;-50
2022/08/30 03:05:33;;;;;;;9.88;5.43;;;;;;;;;;5035152;28;20200;-47
2022/08/30 03:08:03;;;;;;;8.95;4.82;;;;;;;;;;5035056;28;20592;-49
2022/08/30 03:10:30;;;;;;;8.55;5.00;;;;;;;;;;5035059;28;20200;-47
2022/08/30 03:12:58;;;;;;;12.50;4.95;;;;;;;;;;5035158;28;20291;-47
2022/08/30 03:15:25;;;;;;;8.98;5.18;;;;;;;;;;5034917;28;20200;-45
2022/08/30 03:17:53;;;;;;;7.72;4.65;;;;;;;;;;5035141;28;20225;-45
2022/08/30 03:20:21;;;;;;;10.85;5.40;;;;;;;;;;5054676;28;20204;-46
2022/08/30 03:22:48;;;;;;;8.10;4.95;;;;;;;;;;5037682;28;20536;-47
2022/08/30 03:25:15;;;;;;;8.07;5.20;;;;;;;;;;5033665;28;20540;-48
2022/08/30 03:27:42;;;;;;;7.88;5.30;;;;;;;;;;5033834;28;20223;-47
2022/08/30 03:30:11;;;;;;;10.40;5.57;;;;;;;;;;5034517;28;20228;-44
2022/08/30 03:32:39;;;;;;;9.50;5.35;;;;;;;;;;5035326;28;20543;-44
2022/08/30 03:35:06;;;;;;;9.73;5.05;;;;;;;;;;5034659;28;20215;-51
2022/08/30 03:37:34;;;;;;;10.57;5.20;;;;;;;;;;5021933;28;20290;-47
2022/08/30 03:40:03;;;;;;;10.93;5.57;;;;;;;;;;5041120;28;20234;-47
2022/08/30 03:42:32;;;;;;;8.77;5.00;;;;;;;;;;5048256;28;20184;-45
2022/08/30 03:45:01;;;;;;;8.27;5.43;;;;;;;;;;5043208;28;20633;-48
2022/08/30 03:47:28;;;;;;;8.75;5.43;;;;;;;;;;5044043;28;20196;-50
2022/08/30 03:49:55;;;;;;;13.18;5.75;;;;;;;;;;5042660;28;20645;-46
2022/08/30 03:52:23;;;;;;;12.63;5.60;;;;;;;;;;5042579;28;20192;-47
2022/08/30 03:54:50;;;;;;;8.55;5.35;;;;;;;;;;5044165;28;20211;-46
2022/08/30 03:57:17;;;;;;;8.10;5.43;;;;;;;;;;5042732;28;20212;-47
2022/08/30 03:59:50;;;;;;;12.68;5.88;;;;;;;;;;5041292;28;20614;-48
2022/08/30 04:02:17;;;;;;;10.05;5.43;;;;;;;;;;5044934;28;20311;-46
2022/08/30 04:04:45;;;;;;;9.98;5.82;;;;;;;;;;5046196;28;20224;-47
2022/08/30 04:07:12;;;;;;;11.50;5.75;;;;;;;;;;5038398;28;20239;-48
2022/08/30 04:09:40;;;;;;;10.70;6.10;;;;;;;;;;5051037;28;20239;-50
2022/08/30 04:12:08;;;;;;;9.27;5.93;;;;;;;;;;5053183;28;20679;-45
2022/08/30 04:14:35;;;;;;;11.25;6.43;;;;;;;;;;5053293;28;20220;-48
2022/08/30 04:17:02;;;;;;;7.57;5.63;;;;;;;;;;5052630;28;20691;-45
2022/08/30 04:19:29;;;;;;;9.32;6.40;;;;;;;;;;5053753;28;20239;-46
2022/08/30 04:21:56;;;;;;;6.70;5.30;;;;;;;;;;5052963;28;20228;-45
2022/08/30 04:24:24;;;;;;;10.77;5.93;;;;;;;;;;5053904;28;20216;-47
2022/08/30 04:26:51;;;;;;;9.05;5.38;;;;;;;;;;5053289;28;20227;-49
2022/08/30 04:29:18;;;;;;;8.18;5.70;;;;;;;;;;5053650;28;20224;-46
2022/08/30 04:31:45;;;;;;;11.80;6.35;;;;;;;;;;5053384;28;20224;-45
2022/08/30 04:34:13;;;;;;;10.20;5.97;;;;;;;;;;5053502;28;20231;-50
2022/08/30 04:36:40;;;;;;;10.82;5.63;;;;;;;;;;5053485;28;20235;-46
2022/08/30 04:39:07;;;;;;;12.40;5.80;;;;;;;;;;5035802;28;20244;-45
2022/08/30 04:41:35;;;;;;;11.18;6.20;;;;;;;;;;5053387;28;20231;-46
2022/08/30 04:44:03;;;;;;;9.65;6.22;;;;;;;;;;5053224;28;20233;-45
2022/08/30 04:46:30;;;;;;;10.02;5.82;;;;;;;;;;5053458;28;20592;-47
2022/08/30 04:48:57;;;;;;;13.15;6.05;;;;;;;;;;5056376;28;20235;-47
2022/08/30 04:51:24;;;;;;;10.77;6.22;;;;;;;;;;5056610;28;20545;-48
2022/08/30 04:53:51;;;;;;;11.48;6.53;;;;;;;;;;5056370;28;20262;-48
2022/08/30 04:56:21;;;;;;;10.43;6.88;;;;;;;;;;5057135;28;20220;-51
2022/08/30 04:58:50;;;;;;;14.40;6.47;;;;;;;;;;5056958;28;20323;-46
2022/08/30 05:01:28;;;;;;;10.07;6.07;;;;;;;;;;5055870;28;20238;-46
2022/08/30 05:03:56;;;;;;;8.23;6.18;;;;;;;;;;5054926;28;20611;-45
2022/08/30 05:06:26;;;;;;;9.30;6.10;;;;;;;;;;5054952;28;20613;-45
2022/08/30 05:08:53;;;;;;;11.52;6.43;;;;;;;;;;5054540;28;20729;-48
2022/08/30 05:11:21;;;;;;;8.50;6.45;;;;;;;;;;5055986;28;20200;-48
2022/08/30 05:13:48;;;;;;;11.25;6.93;;;;;;;;;;5055627;28;20294;-45
2022/08/30 05:16:18;;;;;;;12.18;7.00;;;;;;;;;;5055303;28;20211;-45
2022/08/30 05:18:47;;;;;;;9.98;6.60;;;;;;;;;;5057266;28;20230;-50
2022/08/30 05:21:17;;;;;;;10.27;7.82;;;;;;;;;;5057662;28;20207;-47
2022/08/30 05:23:44;;;;;;;10.80;6.63;;;;;;;;;;5057206;28;20707;-45
2022/08/30 05:26:21;;;;;;;13.60;7.38;;;;;;;;;;5057327;28;20211;-47
2022/08/30 05:28:50;;;;;;;11.35;8.10;;;;;;;;;;5057055;28;20637;-45
2022/08/30 05:31:26;;;;;;;11.13;7.15;;;;;;;;;;5057170;28;20219;-45
2022/08/30 05:33:54;;;;;;;14.43;8.05;;;;;;;;;;5056964;28;20208;-46
2022/08/30 05:36:24;;;;;;;14.20;7.68;;;;;;;;;;5056777;28;20204;-47
2022/08/30 05:38:52;;;;;;;11.85;7.50;;;;;;;;;;5057080;28;20243;-45
2022/08/30 05:41:21;;;;;;;13.70;8.15;;;;;;;;;;5056926;28;20658;-49
2022/08/30 05:43:54;;;;;;;13.30;7.60;;;;;;;;;;5056655;28;20605;-47
2022/08/30 05:46:21;;;;;;;16.05;8.40;;;;;;;;;;5057316;28;20542;-45
2022/08/30 05:48:49;;;;;;;12.30;8.18;;;;;;;;;;5055944;28;20599;-51
2022/08/30 05:51:20;;;;;;;14.15;8.07;;;;;;;;;;5057096;28;20575;-45
2022/08/30 05:53:48;;;;;;;18.27;8.77;;;;;;;;;;5056906;28;20224;-49
2022/08/30 05:56:18;;;;;;;16.13;7.88;;;;;;;;;;5056611;28;20216;-47
2022/08/30 05:58:46;;;;;;;12.20;7.82;;;;;;;;;;5055324;28;20618;-46
2022/08/30 06:01:30;;;;;;;11.52;7.65;;;;;;;;;;5056683;28;20208;-46
2022/08/30 06:04:01;;;;;;;11.20;7.60;;;;;;;;;;5056110;28;20191;-46
2022/08/30 06:06:33;;;;;;;11.75;7.75;;;;;;;;;;5056809;28;20192;-46
2022/08/30 06:09:01;;;;;;;11.40;7.80;;;;;;;;;;5056095;28;20215;-46
2022/08/30 06:11:31;;;;;;;11.38;7.50;;;;;;;;;;5056954;28;20204;-45
2022/08/30 06:13:57;;;;;;;11.90;7.65;;;;;;;;;;5056501;28;20223;-45
2022/08/30 06:16:26;;;;;;;11.70;7.20;;;;;;;;;;5056339;28;20215;-45
2022/08/30 06:18:55;;;;;;;11.10;7.20;;;;;;;;;;5056096;28;20204;-45
2022/08/30 06:21:28;;;;;;;9.55;7.35;;;;;;;;;;5056062;28;20207;-45
2022/08/30 06:23:56;;;;;;;11.10;7.38;;;;;;;;;;5055902;28;20510;-47
2022/08/30 06:26:24;;;;;;;13.70;8.23;;;;;;;;;;5055909;28;20200;-45
2022/08/30 06:28:51;;;;;;;12.93;7.50;;;;;;;;;;5055864;28;20203;-50
2022/08/30 06:31:20;;;;;;;10.65;6.65;;;;;;;;;;5055757;28;20212;-46
2022/08/30 06:33:48;;;;;;;10.80;6.53;;;;;;;;;;5055848;28;20199;-48
2022/08/30 06:36:19;;;;;;;10.48;6.85;;;;;;;;;;5055786;28;20492;-50
2022/08/30 06:38:49;;;;;;;11.02;6.03;;;;;;;;;;5055795;28;20239;-45
2022/08/30 06:41:18;;;;;;;10.68;6.82;;;;;;;;;;5049751;28;20204;-47
2022/08/30 06:43:45;;;;;;;9.48;6.35;;;;;;;;;;5053002;28;20784;-46
2022/08/30 06:46:20;;;;;;;7.70;5.60;;;;;;;;;;5046045;28;20677;-49
2022/08/30 06:48:48;;;;;;;11.40;6.03;;;;;;;;;;5032883;28;20207;-48
2022/08/30 06:51:22;;;;;;;10.80;6.35;;;;;;;;;;5035408;28;20200;-48
2022/08/30 06:53:50;;;;;;;8.38;5.85;;;;;;;;;;5033565;28;20189;-47
2022/08/30 06:56:18;;;;;;;9.82;6.25;;;;;;;;;;5034598;28;20915;-48
2022/08/30 06:58:45;;;;;;;7.85;6.00;;;;;;;;;;5034001;28;20220;-49
2022/08/30 07:01:23;;;;;;;11.50;6.32;;;;;;;;;;5035397;28;20205;-48
2022/08/30 07:03:50;;;;;;;9.73;6.38;;;;;;;;;;5033669;28;20568;-49
2022/08/30 07:06:18;;;;;;;10.75;6.10;;;;;;;;;;5033770;28;20197;-52
2022/08/30 07:08:45;;;;;;;9.75;5.70;;;;;;;;;;5034345;28;20209;-47
2022/08/30 07:11:13;;;;;;;10.23;5.68;;;;;;;;;;5034823;28;20224;-48
2022/08/30 07:13:40;;;;;;;7.47;4.78;;;;;;;;;;5033967;28;20227;-47
2022/08/30 07:16:09;;;;;;;10.13;5.47;;;;;;;;;;5034854;28;20208;-50
2022/08/30 07:18:54;;;;;;;7.60;4.95;;;;;;;;;;5034460;28;20225;-47
2022/08/30 07:21:27;;;;;;;8.25;5.47;;;;;;;;;;5034187;28;20610;-49
2022/08/30 07:23:56;;;;;;;8.43;5.43;;;;;;;;;;5033596;28;20247;-50
2022/08/30 07:26:31;;;;;;;9.60;4.97;;;;;;;;;;5033833;28;20209;-47
2022/08/30 07:28:58;;;;;;;7.10;4.80;;;;;;;;;;5032887;28;20253;-48
2022/08/30 07:31:25;;;;;;;8.20;4.88;;;;;;;;;;5034201;28;20201;-48
2022/08/30 07:33:53;;;;;;;8.52;5.00;;;;;;;;;;5033597;28;20291;-48
2022/08/30 07:36:20;;;;;;;9.40;4.90;;;;;;;;;;5033967;28;20269;-48
2022/08/30 07:38:49;;;;;;;9.98;5.32;;;;;;;;;;5032309;28;20244;-49
2022/08/30 07:41:22;;;;;;;6.05;4.70;;;;;;;;;;5034742;28;20576;-51
2022/08/30 07:43:50;;;;;;;8.07;4.40;;;;;;;;;;5033319;28;20521;-50
2022/08/30 07:46:18;;;;;;;7.05;4.30;;;;;;;;;;5034396;28;20224;-51
2022/08/30 07:48:45;;;;;;;9.90;4.32;;;;;;;;;;5034047;28;20541;-51
2022/08/30 07:51:18;;;;;;;7.57;4.40;;;;;;;;;;5034571;28;20209;-52
2022/08/30 07:53:46;;;;;;;9.57;4.93;;;;;;;;;;5033345;28;20188;-50
2022/08/30 07:56:13;;;;;;;5.78;3.78;;;;;;;;;;5051876;28;20299;-51
2022/08/30 07:58:40;;;;;;;8.02;4.30;;;;;;;;;;5050615;28;20569;-49
2022/08/30 08:01:09;;;;;;;7.88;3.65;;;;;;;;;;5052046;28;20200;-53
2022/08/30 08:03:38;;;;;;;7.80;3.80;;;;;;;;;;5051976;28;20204;-50
2022/08/30 08:06:07;;;;;;;5.70;3.75;;;;;;;;;;5051881;28;20261;-51
2022/08/30 08:08:35;;;;;;;8.80;3.85;;;;;;;;;;5052303;28;20247;-51
2022/08/30 08:11:24;;;;;;;6.05;3.55;;;;;;;;;;5052846;28;20342;-47
2022/08/30 08:13:55;;;;;;;6.38;3.85;;;;;;;;;;5053646;28;20200;-49
2022/08/30 08:16:24;;;;;;;5.53;3.40;;;;;;;;;;5034339;28;20216;-47
2022/08/30 08:18:52;;;;;;;4.03;2.83;;;;;;;;;;5033579;28;20315;-49
2022/08/30 08:21:20;;;;;;;6.97;3.15;;;;;;;;;;5033707;28;20646;-48
2022/08/30 08:23:47;;;;;;;4.88;2.85;;;;;;;;;;5037379;28;20721;-47
2022/08/30 08:26:14;;;;;;;4.95;2.97;;;;;;;;;;5037039;28;20209;-46
2022/08/30 08:28:43;;;;;;;4.82;2.88;;;;;;;;;;5053236;28;20265;-49
2022/08/30 08:31:20;;;;;;;4.35;2.80;;;;;;;;;;5052163;28;20203;-49
2022/08/30 08:33:49;;;;;;;4.00;3.15;;;;;;;;;;5042087;28;20197;-47
2022/08/30 08:36:17;;;;;;;3.30;2.60;;;;;;;;;;5037567;28;20196;-47
2022/08/30 08:38:44;;;;;;;5.22;3.00;;;;;;;;;;5036451;28;20244;-47
2022/08/30 08:41:17;;;;;;;4.70;2.63;;;;;;;;;;5037756;28;20212;-46
2022/08/30 08:43:44;;;;;;;4.10;2.67;;;;;;;;;;5037112;28;20292;-47
2022/08/30 08:46:52;;;;;;;4.30;2.47;;;;;;;;;;5038957;28;20196;-48
2022/08/30 08:49:20;;;;;;;3.72;2.30;;;;;;;;;;5019382;28;20217;-48
2022/08/30 08:54:41;;;;;;;5.97;2.10;;;;;;;;;;5020347;28;20272;-47
2022/08/30 08:57:09;;;;;;;5.88;2.08;;;;;;;;;;5037589;28;20620;-48
2022/08/30 08:59:43;;;;;;;3.63;2.20;;;;;;;;;;5037722;28;20208;-48
2022/08/30 09:02:24;;;;;;;3.83;2.42;;;;;;;;;;5037181;28;20205;-47
2022/08/30 09:05:00;;;;;;;2.85;1.90;;;;;;;;;;5037624;28;20192;-45
2022/08/30 09:07:37;;;;;;;3.95;1.95;;;;;;;;;;5037548;28;20180;-45
2022/08/30 09:10:05;;;;;;;5.32;2.10;;;;;;;;;;5035668;28;20196;-49
2022/08/30 09:12:32;;;;;;;4.22;2.20;;;;;;;;;;5038520;28;20271;-45
2022/08/30 09:15:23;;;;;;;4.20;2.33;;;;;;;;;;5046338;28;20205;-48
2022/08/30 09:17:57;;;;;;;4.32;2.17;;;;;;;;;;5046687;28;20239;-50
2022/08/30 09:20:29;;;;;;;4.85;2.10;;;;;;;;;;5047638;28;20693;-50
2022/08/30 09:22:57;;;;;;;3.00;2.10;;;;;;;;;;5047071;28;20265;-46
2022/08/30 09:25:28;;;;;;;5.55;1.90;;;;;;;;;;5044784;28;20286;-47
2022/08/30 09:28:09;;;;;;;4.38;2.20;;;;;;;;;;5055145;28;20196;-48
2022/08/30 09:30:37;;;;;;;3.17;1.92;;;;;;;;;;5055706;28;20184;-46
2022/08/30 09:33:09;;;;;;;7.32;2.47;;;;;;;;;;5055875;28;20212;-49
2022/08/30 09:35:47;;;;;;;3.00;1.60;;;;;;;;;;5055288;28;20188;-49
2022/08/30 09:38:20;;;;;;;2.83;2.13;;;;;;;;;;5056758;28;20243;-46
2022/08/30 09:40:54;;;;;;;2.33;2.05;;;;;;;;;;5049912;28;20189;-49
2022/08/30 09:43:29;;;;;;;4.68;2.17;;;;;;;;;;5035086;28;20536;-46
2022/08/30 09:45:59;;;;;;;2.92;2.20;;;;;;;;;;5036393;28;20192;-46
2022/08/30 09:48:37;;;;;;;3.25;2.20;;;;;;;;;;5036404;28;20189;-48
2022/08/30 09:51:10;;;;;;;1.83;1.45;;;;;;;;;;5036651;28;20242;-46
2022/08/30 09:54:08;;;;;;;2.10;1.50;;;;;;;;;;5036260;28;20207;-46
2022/08/30 09:57:08;;;;;;;2.58;1.77;;;;;;;;;;5035029;28;20221;-51
2022/08/30 10:00:09;;;;;;;2.33;1.90;;;;;;;;;;5034781;28;20617;-48
2022/08/30 10:02:42;;;;;;;2.92;2.00;;;;;;;;;;5029773;28;20711;-47
2022/08/30 10:05:44;;;;;;;3.70;2.42;;;;;;;;;;5035690;28;20215;-47
2022/08/30 10:08:27;;;;;;;4.18;2.50;;;;;;;;;;4974559;28;20292;-48
2022/08/30 10:11:00;;;;;;;3.17;2.47;;;;;;;;;;4975492;28;20258;-46
2022/08/30 10:13:56;;;;;;;3.22;2.20;;;;;;;;;;4975328;28;20213;-46
2022/08/30 10:16:39;;;;;;;3.15;2.00;;;;;;;;;;4934966;28;20258;-47
2022/08/30 10:19:20;;;;;;;3.15;2.08;;;;;;;;;;4985942;28;20566;-47
2022/08/30 10:21:54;;;;;;;3.67;2.90;;;;;;;;;;4994319;28;20217;-47
2022/08/30 10:24:27;;;;;;;3.78;2.50;;;;;;;;;;4994419;28;20191;-47
2022/08/30 10:27:05;;;;;;;3.58;2.38;;;;;;;;;;4994105;28;20627;-47
2022/08/30 10:29:52;;;;;;;3.35;2.60;;;;;;;;;;4994397;28;20301;-47
2022/08/30 10:32:28;;;;;;;3.67;2.60;;;;;;;;;;4994238;28;20212;-47
2022/08/30 10:35:09;;;;;;;5.03;2.83;;;;;;;;;;4993070;28;20281;-47
2022/08/30 10:37:45;;;;;;;3.17;2.55;;;;;;;;;;4990654;28;20635;-45
2022/08/30 10:43:12;;;;;;;4.85;2.35;;;;;;;;;;4993477;28;20257;-48
2022/08/30 10:45:44;;;;;;;4.57;2.95;;;;;;;;;;5007682;28;20196;-47
2022/08/30 10:48:25;;;;;;;3.83;2.80;;;;;;;;;;5017442;28;20185;-47
2022/08/30 10:50:55;;;;;;;3.17;2.78;;;;;;;;;;5034756;28;20694;-49
2022/08/30 10:53:32;;;;;;;7.18;2.65;;;;;;;;;;5017991;28;20542;-47
2022/08/30 10:56:06;;;;;;;4.38;3.40;;;;;;;;;;5017994;28;20618;-48
2022/08/30 10:58:39;;;;;;;4.63;2.90;;;;;;;;;;5031203;28;20647;-49
2022/08/30 11:01:33;;;;;;;4.07;2.25;;;;;;;;;;5053614;28;20192;-51
2022/08/30 11:04:06;;;;;;;3.22;2.30;;;;;;;;;;5054422;28;20200;-46
2022/08/30 11:06:52;;;;;;;2.22;1.90;;;;;;;;;;5053088;28;20254;-49
2022/08/30 11:09:35;;;;;;;3.63;2.05;;;;;;;;;;5054168;28;20210;-47
2022/08/30 11:12:20;;;;;;;3.08;2.00;;;;;;;;;;5054361;28;20203;-47
2022/08/30 11:14:47;;;;;;;2.88;2.58;;;;;;;;;;5054695;28;20198;-48
2022/08/30 11:17:28;;;;;;;3.78;2.30;;;;;;;;;;5053646;28;20208;-47
2022/08/30 11:19:58;;;;;;;4.32;2.17;;;;;;;;;;5051695;28;20212;-46
2022/08/30 11:22:34;;;;;;;2.35;1.60;;;;;;;;;;5038964;28;20197;-49
2022/08/30 11:25:12;;;;;;;2.47;2.10;;;;;;;;;;5025999;28;20618;-46
2022/08/30 11:27:51;;;;;;;3.08;1.90;;;;;;;;;;5042617;28;20219;-47
2022/08/30 11:30:24;;;;;;;3.85;2.67;;;;;;;;;;5041604;28;20192;-46
2022/08/30 11:33:01;;;;;;;3.35;2.63;;;;;;;;;;5044326;28;20598;-47
2022/08/30 11:35:42;;;;;;;3.70;2.70;;;;;;;;;;5045176;28;20192;-47
2022/08/30 11:38:27;;;;;;;3.22;2.70;;;;;;;;;;5044192;28;20320;-47
2022/08/30 11:40:54;;;;;;;3.10;2.03;;;;;;;;;;5045178;28;20280;-47
2022/08/30 11:43:34;;;;;;;4.13;2.67;;;;;;;;;;5039405;28;20610;-47
2022/08/30 11:46:11;;;;;;;3.97;2.25;;;;;;;;;;5037236;28;20192;-47
2022/08/30 11:48:54;;;;;;;2.65;2.00;;;;;;;;;;5042697;28;20259;-47
2022/08/30 11:51:40;;;;;;;3.00;2.33;;;;;;;;;;5049320;28;20180;-49
2022/08/30 11:54:47;;;;;;;5.80;2.30;;;;;;;;;;5044140;28;20624;-46
2022/08/30 11:57:40;;;;;;;5.70;2.47;;;;;;;;;;5045513;28;20191;-47
2022/08/30 12:00:11;;;;;;;2.47;2.10;;;;;;;;;;5048330;28;20211;-48
2022/08/30 12:02:49;;;;;;;5.72;2.60;;;;;;;;;;5030936;28;20267;-48
2022/08/30 12:05:37;;;;;;;3.63;2.60;;;;;;;;;;5048346;28;20595;-52
2022/08/30 12:08:07;;;;;;;5.15;2.40;;;;;;;;;;5046588;28;20280;-50
2022/08/30 12:10:47;;;;;;;2.72;2.38;;;;;;;;;;5046346;28;20318;-52
2022/08/30 12:13:32;;;;;;;4.65;3.30;;;;;;;;;;5031582;28;20541;-50
2022/08/30 12:16:06;;;;;;;3.95;2.70;;;;;;;;;;5048538;28;20592;-48
2022/08/30 12:18:38;;;;;;;4.55;3.08;;;;;;;;;;5047541;28;20216;-47
2022/08/30 12:21:24;;;;;;;4.75;2.38;;;;;;;;;;5045882;28;20200;-47
2022/08/30 12:24:08;;;;;;;5.05;2.42;;;;;;;;;;5048832;28;20259;-46
2022/08/30 12:26:38;;;;;;;2.75;2.30;;;;;;;;;;5048160;28;20201;-46
2022/08/30 12:29:23;;;;;;;4.35;2.42;;;;;;;;;;5045728;28;20196;-47
2022/08/30 12:31:57;;;;;;;7.82;2.70;;;;;;;;;;5047869;28;20220;-46
2022/08/30 12:34:33;;;;;;;3.53;2.55;;;;;;;;;;5045570;28;20208;-49
2022/08/30 12:37:19;;;;;;;5.72;2.42;;;;;;;;;;5045238;28;20606;-46
2022/08/30 12:39:46;;;;;;;9.80;2.20;;;;;;;;;;5058059;28;20538;-47
2022/08/30 12:42:26;;;;;;;2.55;2.28;;;;;;;;;;5058171;28;20212;-46
2022/08/30 12:44:56;;;;;;;2.45;2.13;;;;;;;;;;5053053;28;20193;-48
2022/08/30 12:47:25;;;;;;;2.55;2.35;;;;;;;;;;5037983;28;20193;-49
2022/08/30 12:49:53;;;;;;;5.10;2.10;;;;;;;;;;5046336;28;20589;-48
2022/08/30 12:52:28;;;;;;;5.07;1.70;;;;;;;;;;5049027;28;20258;-46
2022/08/30 12:55:05;;;;;;;2.65;1.73;;;;;;;;;;5055156;28;20314;-47
2022/08/30 12:58:11;;;;;;;2.38;1.70;;;;;;;;;;5052542;28;20558;-46
2022/08/30 13:00:40;;;;;;;15.88;2.20;;;;;;;;;;5029199;28;20294;-47
2022/08/30 13:03:32;;;;;;;2.15;1.65;;;;;;;;;;5045106;28;20526;-47
2022/08/30 13:06:00;;;;;;;9.85;1.60;;;;;;;;;;5035895;28;20256;-46
2022/08/30 13:08:41;;;;;;;2.40;1.40;;;;;;;;;;5051492;28;20665;-46
2022/08/30 13:11:10;;;;;;;3.30;1.58;;;;;;;;;;5056868;28;20315;-47
2022/08/30 13:13:44;;;;;;;2.85;1.45;;;;;;;;;;5056295;28;20227;-45
2022/08/30 13:16:21;;;;;;;4.03;1.30;;;;;;;;;;5056264;28;20230;-47
2022/08/30 13:18:54;;;;;;;250.90;13.07;;;;;;;;;;5056170;28;20306;-46
2022/08/30 13:21:25;;;;;;;13.90;1.90;;;;;;;;;;5055835;28;20607;-46
2022/08/30 13:23:58;;;;;;;2.67;1.42;;;;;;;;;;5056205;28;20228;-47
2022/08/30 13:26:27;;;;;;;4.55;1.25;;;;;;;;;;5056339;28;20707;-46
2022/08/30 13:28:59;;;;;;;3.55;1.40;;;;;;;;;;5056129;28;20285;-47
2022/08/30 13:31:27;;;;;;;3.00;1.55;;;;;;;;;;5053001;28;20564;-46
2022/08/30 13:33:56;;;;;;;5.32;1.73;;;;;;;;;;5044387;28;20283;-46
2022/08/30 13:36:28;;;;;;;5.38;1.60;;;;;;;;;;5044788;28;20238;-47
2022/08/30 13:38:56;;;;;;;2.85;1.55;;;;;;;;;;5040881;28;20268;-47
2022/08/30 13:44:27;;;;;;;3.10;1.42;;;;;;;;;;5162768;22;20325;-50
2022/08/30 13:46:57;;;;;;;2.78;1.35;;;;;;;;;;5075595;28;20684;-49
2022/08/30 13:49:45;;;;;;;2.22;1.55;;;;;;;;;;5068121;28;20682;-51
2022/08/30 13:52:21;;;;;;;5.13;1.40;;;;;;;;;;5069056;28;20616;-50
2022/08/30 13:54:54;;;;;;;1.98;1.20;;;;;;;;;;5065058;28;20219;-52
2022/08/30 13:57:24;;;;;;;4.70;1.73;;;;;;;;;;5067806;28;20252;-53
2022/08/30 14:00:16;;;;;;;1.58;1.10;;;;;;;;;;5055405;28;20266;-50
2022/08/30 14:02:46;;;;;;;1.95;1.10;;;;;;;;;;5055593;28;20730;-53
2022/08/30 14:05:39;;;;;;;2.53;1.13;;;;;;;;;;5055856;28;20250;-50
2022/08/30 14:08:27;;;;;;;12.75;1.63;;;;;;;;;;5055270;28;20251;-51
2022/08/30 14:11:16;;;;;;;3.72;1.20;;;;;;;;;;5055245;28;20228;-50
2022/08/30 14:13:45;;;;;;;2.67;1.40;;;;;;;;;;5054840;28;20220;-54
2022/08/30 14:16:33;;;;;;;4.85;1.30;;;;;;;;;;5053683;28;20217;-54
2022/08/30 14:19:02;;;;;;;4.38;1.40;;;;;;;;;;5053729;28;20235;-52
2022/08/30 14:21:29;;;;;;;2.10;1.00;;;;;;;;;;5067699;28;20233;-52
2022/08/30 14:23:56;;;;;;;1.65;1.00;;;;;;;;;;5075366;28;20272;-53
2022/08/30 14:26:36;;;;;;;3.72;1.08;;;;;;;;;;5075360;28;20238;-50
2022/08/30 14:29:05;;;;;;;1.52;0.80;;;;;;;;;;5074953;28;20556;-50
2022/08/30 14:31:36;;;;;;;2.22;1.10;;;;;;;;;;5075232;28;20239;-50
2022/08/30 14:34:05;;;;;;;1.45;0.73;;;;;;;;;;5075260;28;20216;-55
2022/08/30 14:36:33;;;;;;;1.48;0.70;;;;;;;;;;5075121;28;20238;-56
2022/08/30 14:39:02;;;;;;;3.45;0.70;;;;;;;;;;5070090;28;20242;-56
2022/08/30 14:41:40;;;;;;;3.30;1.00;;;;;;;;;;5068025;28;20215;-56
2022/08/30 14:44:11;;;;;;;1.95;1.00;;;;;;;;;;5073480;28;20547;-56
2022/08/30 14:46:38;;;;;;;3.08;0.70;;;;;;;;;;5074964;28;20553;-57
2022/08/30 14:49:06;;;;;;;1.25;0.70;;;;;;;;;;5074776;28;20245;-56
2022/08/30 14:51:36;;;;;;;4.28;0.88;;;;;;;;;;5070930;28;20683;-55
2022/08/30 14:54:03;;;;;;;1.58;0.88;;;;;;;;;;5054807;28;20573;-56
2022/08/30 14:56:30;;;;;;;2.35;0.90;;;;;;;;;;5054975;28;20710;-56
2022/08/30 14:58:59;;;;;;;1.35;0.80;;;;;;;;;;5062046;28;20223;-57
2022/08/30 15:01:27;;;;;;;3.40;0.90;;;;;;;;;;5074490;28;20216;-57
2022/08/30 15:03:54;;;;;;;3.30;0.70;;;;;;;;;;5074661;28;20230;-56
2022/08/30 15:06:22;;;;;;;1.30;0.70;;;;;;;;;;5074249;28;20258;-57
2022/08/30 15:08:53;;;;;;;1.60;1.00;;;;;;;;;;5073770;28;20277;-57
2022/08/30 15:11:21;;;;;;;2.90;1.00;;;;;;;;;;5074736;28;20231;-57
2022/08/30 15:13:49;;;;;;;2.50;0.70;;;;;;;;;;5074482;28;20296;-57
2022/08/30 15:16:20;;;;;;;1.33;0.70;;;;;;;;;;5074920;28;20227;-57
2022/08/30 15:18:47;;;;;;;3.92;0.70;;;;;;;;;;5075116;28;20206;-57